Time;durP1;ratioP1;P1;durP2;ratioP2;P2;SDS_P1;SDS_P2;PMS_P1;PMS_P2;Temp;Humidity;BMP_temperature;BMP_pressure;BME280_temperature;BME280_humidity;BME280_pressure;Samples;Min_cycle;Max_cycle;Signal;HPM_P1;HPM_P2
2023/12/26 00:00:21;;;;;;;8.00;0.00;;;12.10;99.90;;;;;;5056453;28;20499;-78
2023/12/26 00:02:46;;;;;;;6.80;0.40;;;11.00;99.90;;;;;;5057919;28;20021;-77
2023/12/26 00:05:12;;;;;;;6.32;0.73;;;11.00;99.90;;;;;;5055922;28;20032;-78
2023/12/26 00:07:39;;;;;;;8.98;0.60;;;11.00;99.90;;;;;;5056238;28;20050;-77
2023/12/26 00:10:05;;;;;;;5.25;0.43;;;10.90;99.90;;;;;;5039694;28;20028;-77
2023/12/26 00:12:31;;;;;;;3.35;0.17;;;;;;;;;;5039346;28;20021;-77
2023/12/26 00:14:57;;;;;;;1.48;0.00;;;10.90;99.90;;;;;;5039521;28;20463;-77
2023/12/26 00:17:22;;;;;;;1.30;0.00;;;10.90;99.90;;;;;;5042619;28;20055;-79
2023/12/26 00:19:49;;;;;;;6.13;0.68;;;;;;;;;;5055686;28;20021;-79
2023/12/26 00:22:15;;;;;;;3.95;0.20;;;11.00;99.90;;;;;;5046868;28;20021;-79
2023/12/26 00:24:41;;;;;;;1.48;0.00;;;11.00;99.90;;;;;;5053173;28;20431;-78
2023/12/26 00:27:10;;;;;;;5.82;0.00;;;11.00;99.90;;;;;;5039044;28;20056;-77
2023/12/26 00:29:37;;;;;;;1.33;0.00;;;11.00;99.90;;;;;;5039248;28;20429;-77
2023/12/26 00:32:03;;;;;;;2.55;0.00;;;10.90;99.90;;;;;;5038852;28;20020;-77
2023/12/26 00:34:29;;;;;;;2.17;0.00;;;11.00;99.90;;;;;;5038637;28;20374;-77
2023/12/26 00:36:54;;;;;;;1.80;0.20;;;11.00;99.90;;;;;;5055456;28;20078;-77
2023/12/26 00:39:20;;;;;;;1.00;0.00;;;11.00;99.90;;;;;;5062514;28;20025;-79
2023/12/26 00:41:46;;;;;;;2.33;0.00;;;11.00;99.90;;;;;;5056186;28;20028;-78
2023/12/26 00:44:11;;;;;;;0.38;0.00;;;11.00;99.90;;;;;;5057516;28;20036;-80
2023/12/26 00:46:37;;;;;;;3.38;0.00;;;11.00;99.90;;;;;;5058086;28;20024;-78
2023/12/26 00:49:03;;;;;;;1.70;0.00;;;;;;;;;;5059579;28;20021;-78
2023/12/26 00:51:30;;;;;;;1.88;0.10;;;11.00;99.90;;;;;;5042895;28;20029;-78
2023/12/26 00:53:56;;;;;;;0.75;0.00;;;11.00;99.90;;;;;;5039213;28;20115;-78
2023/12/26 00:56:22;;;;;;;0.20;0.00;;;10.90;99.90;;;;;;5054939;28;20056;-77
2023/12/26 00:58:47;;;;;;;4.40;0.00;;;10.90;99.90;;;;;;5056416;28;20029;-77
2023/12/26 01:01:14;;;;;;;0.43;0.00;;;11.00;99.90;;;;;;5056497;28;20092;-78
2023/12/26 01:03:39;;;;;;;2.22;0.10;;;11.00;99.90;;;;;;5038496;28;20067;-77
2023/12/26 01:06:05;;;;;;;1.95;0.30;;;11.00;99.90;;;;;;5055052;28;20021;-78
2023/12/26 01:08:31;;;;;;;12.70;0.85;;;11.00;99.90;;;;;;5056446;28;20507;-77
2023/12/26 01:10:56;;;;;;;4.95;0.40;;;11.00;99.90;;;;;;5056678;28;20067;-77
2023/12/26 01:13:22;;;;;;;4.00;0.30;;;11.00;99.90;;;;;;5046126;28;20028;-77
2023/12/26 01:15:47;;;;;;;4.50;0.10;;;10.90;99.90;;;;;;5037845;28;20110;-78
2023/12/26 01:18:13;;;;;;;5.70;0.35;;;10.90;99.90;;;;;;5038528;28;20021;-78
2023/12/26 01:20:38;;;;;;;8.07;0.25;;;11.30;99.90;;;;;;5056059;28;20037;-77
2023/12/26 01:23:04;;;;;;;3.65;0.35;;;11.00;99.90;;;;;;5060381;28;20365;-77
2023/12/26 01:25:30;;;;;;;4.78;0.03;;;11.00;99.90;;;;;;5038735;28;20025;-77
2023/12/26 01:27:55;;;;;;;6.07;0.22;;;11.00;99.90;;;;;;5053317;28;20093;-81
2023/12/26 01:30:21;;;;;;;5.55;0.30;;;10.90;99.90;;;;;;5042122;28;20483;-79
2023/12/26 01:32:46;;;;;;;7.07;0.40;;;11.00;99.90;;;;;;5063293;28;20033;-78
2023/12/26 01:35:12;;;;;;;3.33;0.10;;;11.00;99.90;;;;;;5038062;28;20390;-77
2023/12/26 01:37:38;;;;;;;6.30;0.43;;;11.00;99.90;;;;;;5056828;28;20029;-78
2023/12/26 01:40:04;;;;;;;5.30;0.08;;;10.90;99.90;;;;;;5038412;28;20086;-78
2023/12/26 01:42:30;;;;;;;4.28;0.22;;;10.90;99.90;;;;;;5055375;28;20040;-78
2023/12/26 01:44:56;;;;;;;6.07;0.17;;;10.90;99.90;;;;;;5037647;28;20021;-78
2023/12/26 01:47:22;;;;;;;10.35;0.65;;;10.90;99.90;;;;;;5056070;28;20407;-78
2023/12/26 01:49:48;;;;;;;2.67;0.00;;;10.90;99.90;;;;;;5055530;28;20025;-77
2023/12/26 01:52:16;;;;;;;8.98;1.70;;;10.90;99.90;;;;;;5037513;28;20021;-78
2023/12/26 01:54:41;;;;;;;5.70;0.40;;;10.90;99.90;;;;;;5055225;28;20399;-78
2023/12/26 01:57:08;;;;;;;7.90;0.73;;;10.90;99.90;;;;;;5055627;28;20064;-77
2023/12/26 01:59:35;;;;;;;5.13;0.25;;;10.90;99.90;;;;;;5055179;28;20039;-78
2023/12/26 02:02:02;;;;;;;5.88;0.98;;;10.90;99.90;;;;;;5037316;28;20388;-77
2023/12/26 02:04:28;;;;;;;6.40;0.55;;;10.90;99.90;;;;;;5055001;28;20025;-77
2023/12/26 02:06:56;;;;;;;4.97;0.47;;;10.90;99.90;;;;;;5036929;28;20029;-77
2023/12/26 02:09:23;;;;;;;6.13;0.05;;;10.90;99.90;;;;;;5061127;28;20021;-79
2023/12/26 02:11:50;;;;;;;4.47;0.55;;;10.90;99.90;;;;;;5070795;28;20558;-80
2023/12/26 02:14:15;;;;;;;5.57;0.20;;;10.80;99.90;;;;;;5070238;28;20488;-81
2023/12/26 02:16:43;;;;;;;5.45;0.30;;;10.70;99.90;;;;;;5052042;28;20028;-79
2023/12/26 02:19:08;;;;;;;6.93;0.28;;;10.60;99.90;;;;;;5070105;28;20025;-79
2023/12/26 02:21:34;;;;;;;2.20;0.00;;;10.50;99.90;;;;;;5069757;28;20112;-79
2023/12/26 02:23:59;;;;;;;0.65;0.00;;;10.40;99.90;;;;;;5060003;28;20032;-77
2023/12/26 02:26:28;;;;;;;3.03;0.00;;;10.30;99.90;;;;;;5054693;28;20029;-77
2023/12/26 02:28:55;;;;;;;5.18;0.15;;;10.30;99.90;;;;;;5038905;28;20089;-78
2023/12/26 02:31:21;;;;;;;7.82;0.30;;;10.20;99.90;;;;;;5065674;28;20088;-77
2023/12/26 02:33:47;;;;;;;4.55;0.63;;;10.20;99.90;;;;;;5054607;28;20021;-77
2023/12/26 02:36:14;;;;;;;4.40;0.35;;;10.20;99.90;;;;;;5055043;28;20039;-77
2023/12/26 02:38:40;;;;;;;4.90;0.00;;;10.20;99.90;;;;;;5054823;28;20042;-77
2023/12/26 02:41:06;;;;;;;1.75;0.00;;;;;;;;;;5055735;28;20426;-77
2023/12/26 02:43:34;;;;;;;5.20;0.52;;;10.20;99.90;;;;;;5037596;28;20495;-78
2023/12/26 02:46:00;;;;;;;5.70;0.98;;;10.40;99.90;;;;;;5040086;28;20028;-79
2023/12/26 02:48:26;;;;;;;3.58;0.20;;;10.50;99.90;;;;;;5037912;28;20489;-78
2023/12/26 02:50:53;;;;;;;4.15;0.25;;;11.60;99.90;;;;;;5055666;28;20017;-78
2023/12/26 02:53:19;;;;;;;1.35;0.20;;;10.50;99.90;;;;;;5055542;28;20009;-78
2023/12/26 02:55:44;;;;;;;3.72;0.00;;;10.50;99.90;;;;;;5037238;28;20029;-78
2023/12/26 02:58:10;;;;;;;4.63;0.30;;;10.50;99.90;;;;;;5055232;28;20025;-78
2023/12/26 03:00:36;;;;;;;4.28;0.00;;;10.40;99.90;;;;;;5054601;28;20477;-78
2023/12/26 03:03:01;;;;;;;2.20;0.20;;;10.50;99.90;;;;;;5054724;28;20025;-78
2023/12/26 03:05:27;;;;;;;5.63;0.20;;;10.40;99.90;;;;;;5055244;28;20449;-78
2023/12/26 03:07:53;;;;;;;3.92;0.05;;;11.90;99.90;;;;;;5053726;28;20017;-79
2023/12/26 03:10:18;;;;;;;4.18;0.10;;;10.50;99.90;;;;;;5054679;28;20025;-78
2023/12/26 03:12:44;;;;;;;4.70;0.00;;;11.50;99.90;;;;;;5036322;28;20036;-78
2023/12/26 03:15:11;;;;;;;2.72;0.70;;;10.50;99.90;;;;;;5054306;28;20081;-78
2023/12/26 03:17:37;;;;;;;2.70;0.00;;;10.50;99.90;;;;;;5055002;28;20458;-77
2023/12/26 03:20:03;;;;;;;3.10;0.20;;;10.40;99.90;;;;;;5037119;28;20116;-77
2023/12/26 03:22:29;;;;;;;2.88;0.00;;;10.40;99.90;;;;;;5036477;28;20021;-77
2023/12/26 03:24:54;;;;;;;9.23;0.60;;;10.40;99.90;;;;;;5060501;28;20120;-78
2023/12/26 03:27:20;;;;;;;2.28;0.00;;;10.40;99.90;;;;;;5043529;28;20095;-77
2023/12/26 03:29:45;;;;;;;7.35;0.05;;;10.40;99.90;;;;;;5061180;28;20094;-79
2023/12/26 03:32:13;;;;;;;5.90;0.15;;;10.30;99.90;;;;;;5043697;28;20084;-77
2023/12/26 03:34:39;;;;;;;5.68;0.00;;;10.30;99.90;;;;;;5043055;28;20029;-79
2023/12/26 03:37:04;;;;;;;2.97;0.00;;;10.30;99.90;;;;;;5059761;28;20025;-79
2023/12/26 03:39:32;;;;;;;3.42;0.10;;;10.20;99.90;;;;;;5061240;28;20036;-78
2023/12/26 03:41:57;;;;;;;5.65;0.70;;;10.10;99.90;;;;;;5061203;28;20356;-79
2023/12/26 03:44:23;;;;;;;6.07;0.52;;;10.10;99.90;;;;;;5042780;28;20033;-79
2023/12/26 03:46:48;;;;;;;2.67;0.10;;;10.00;99.90;;;;;;5060856;28;20028;-78
2023/12/26 03:49:14;;;;;;;2.28;0.00;;;10.00;99.90;;;;;;5061322;28;20079;-77
2023/12/26 03:51:40;;;;;;;6.85;0.90;;;10.00;99.90;;;;;;5059270;28;20104;-77
2023/12/26 03:54:06;;;;;;;6.50;0.20;;;10.00;99.90;;;;;;5060947;28;20441;-77
2023/12/26 03:56:32;;;;;;;4.32;0.43;;;9.80;99.90;;;;;;5060997;28;20039;-79
2023/12/26 03:58:59;;;;;;;7.95;0.32;;;10.90;99.90;;;;;;5060982;28;20033;-78
2023/12/26 04:01:25;;;;;;;5.88;0.65;;;9.80;99.90;;;;;;5061301;28;20358;-77
2023/12/26 04:03:51;;;;;;;2.83;0.22;;;9.70;99.90;;;;;;5061177;28;20021;-77
2023/12/26 04:06:17;;;;;;;1.88;0.00;;;9.60;99.90;;;;;;5043342;28;20071;-77
2023/12/26 04:08:42;;;;;;;5.13;0.00;;;9.50;99.90;;;;;;5059499;28;20021;-78
2023/12/26 04:11:12;;;;;;;5.28;0.00;;;9.50;99.90;;;;;;5060911;28;20020;-78
2023/12/26 04:13:38;;;;;;;11.95;0.35;;;9.50;99.90;;;;;;5061745;28;20079;-78
2023/12/26 04:16:04;;;;;;;7.30;0.20;;;9.40;99.90;;;;;;5061374;28;20025;-78
2023/12/26 04:18:29;;;;;;;4.20;0.10;;;9.40;99.90;;;;;;5044421;28;20372;-77
2023/12/26 04:20:55;;;;;;;7.60;0.50;;;9.40;99.90;;;;;;5044992;28;20017;-80
2023/12/26 04:23:21;;;;;;;6.90;0.40;;;9.40;99.90;;;;;;5043783;28;20013;-77
2023/12/26 04:25:46;;;;;;;4.07;0.05;;;9.30;99.90;;;;;;5061359;28;20021;-78
2023/12/26 04:28:12;;;;;;;4.35;0.00;;;9.30;99.90;;;;;;5060690;28;20055;-78
2023/12/26 04:30:38;;;;;;;4.20;0.00;;;9.30;99.90;;;;;;5060740;28;20042;-78
2023/12/26 04:33:05;;;;;;;3.42;0.00;;;9.20;99.90;;;;;;5060261;28;20111;-77
2023/12/26 04:35:31;;;;;;;9.05;0.55;;;9.30;99.90;;;;;;5039773;28;20029;-78
2023/12/26 04:37:56;;;;;;;2.58;0.52;;;9.30;99.90;;;;;;5057317;28;20076;-78
2023/12/26 04:40:22;;;;;;;2.70;0.00;;;9.20;99.90;;;;;;5056401;28;20075;-78
2023/12/26 04:42:48;;;;;;;4.28;0.00;;;9.70;99.90;;;;;;5058626;28;20031;-78
2023/12/26 04:45:14;;;;;;;10.52;1.13;;;9.20;99.90;;;;;;5060359;28;20040;-80
2023/12/26 04:47:39;;;;;;;5.43;0.20;;;9.20;99.90;;;;;;5058179;28;20392;-79
2023/12/26 04:50:06;;;;;;;12.00;0.57;;;;;;;;;;5058107;28;20017;-77
2023/12/26 04:52:31;;;;;;;4.03;0.17;;;9.10;99.90;;;;;;5057575;28;20028;-80
2023/12/26 04:54:57;;;;;;;5.30;0.52;;;9.10;99.90;;;;;;5039264;28;20028;-78
2023/12/26 04:57:22;;;;;;;4.00;0.65;;;9.10;99.90;;;;;;5039723;28;20025;-80
2023/12/26 04:59:48;;;;;;;4.03;0.00;;;9.00;99.90;;;;;;5055750;28;20490;-80
2023/12/26 05:02:14;;;;;;;5.10;0.47;;;9.00;99.90;;;;;;5057620;28;20020;-79
2023/12/26 05:04:40;;;;;;;2.90;0.00;;;9.00;99.90;;;;;;5039158;28;20056;-79
2023/12/26 05:07:08;;;;;;;4.10;0.20;;;9.00;99.90;;;;;;5056585;28;20477;-78
2023/12/26 05:09:33;;;;;;;3.30;0.13;;;9.00;99.90;;;;;;5056368;28;20055;-78
2023/12/26 05:11:59;;;;;;;2.53;0.00;;;9.00;99.90;;;;;;5039052;28;20029;-78
2023/12/26 05:14:25;;;;;;;7.68;0.20;;;8.80;99.90;;;;;;5057392;28;20033;-79
2023/12/26 05:16:51;;;;;;;2.42;0.00;;;8.80;99.90;;;;;;5056483;28;20105;-80
2023/12/26 05:19:17;;;;;;;11.65;0.55;;;8.80;99.90;;;;;;5042881;28;20021;-80
2023/12/26 05:21:43;;;;;;;3.38;0.20;;;8.80;99.90;;;;;;5059596;28;20028;-79
2023/12/26 05:24:08;;;;;;;6.78;0.10;;;8.80;99.90;;;;;;5057929;28;20388;-79
2023/12/26 05:26:41;;;;;;;4.80;0.00;;;8.70;99.90;;;;;;5057306;28;20159;-78
2023/12/26 05:29:07;;;;;;;3.53;0.43;;;8.70;99.90;;;;;;5038345;28;20021;-78
2023/12/26 05:31:33;;;;;;;2.65;0.17;;;8.60;99.90;;;;;;5039039;28;20027;-79
2023/12/26 05:34:01;;;;;;;5.15;0.60;;;8.50;99.90;;;;;;5038141;28;20115;-78
2023/12/26 05:36:26;;;;;;;1.70;0.00;;;8.50;99.90;;;;;;5056600;28;20499;-78
2023/12/26 05:38:52;;;;;;;6.05;0.60;;;8.50;99.90;;;;;;5038844;28;20052;-79
2023/12/26 05:41:17;;;;;;;12.45;1.02;;;8.50;99.90;;;;;;5056319;28;20040;-79
2023/12/26 05:43:43;;;;;;;4.85;0.70;;;8.50;99.90;;;;;;5056545;28;20063;-79
2023/12/26 05:46:09;;;;;;;6.72;0.15;;;8.50;99.90;;;;;;5054565;28;20078;-78
2023/12/26 05:48:35;;;;;;;7.05;0.85;;;8.40;99.90;;;;;;5038538;28;20055;-78
2023/12/26 05:51:00;;;;;;;5.22;0.38;;;8.40;99.90;;;;;;5055102;28;20480;-79
2023/12/26 05:53:29;;;;;;;5.03;0.10;;;8.40;99.90;;;;;;5054923;28;20392;-78
2023/12/26 05:55:56;;;;;;;4.32;0.30;;;8.40;99.90;;;;;;5039353;28;20400;-78
2023/12/26 05:58:23;;;;;;;4.20;0.10;;;8.40;99.90;;;;;;5038370;28;20484;-79
2023/12/26 06:00:48;;;;;;;5.93;0.40;;;8.40;99.90;;;;;;5057446;28;20025;-79
2023/12/26 06:03:14;;;;;;;6.68;0.75;;;8.40;99.90;;;;;;5038910;28;20377;-79
2023/12/26 06:05:39;;;;;;;6.13;0.73;;;8.40;99.90;;;;;;5056417;28;20017;-79
2023/12/26 06:08:05;;;;;;;8.18;0.10;;;8.30;99.90;;;;;;5056699;28;20029;-78
2023/12/26 06:10:31;;;;;;;8.52;0.50;;;8.10;99.90;;;;;;5056327;28;20021;-77
2023/12/26 06:12:56;;;;;;;6.15;0.45;;;8.40;99.90;;;;;;5056457;28;20021;-77
2023/12/26 06:15:22;;;;;;;4.60;0.00;;;8.40;99.90;;;;;;5054541;28;20116;-78
2023/12/26 06:17:47;;;;;;;4.10;0.10;;;8.30;99.90;;;;;;5056853;28;20107;-78
2023/12/26 06:20:14;;;;;;;5.07;0.22;;;8.30;99.90;;;;;;5056661;28;20052;-78
2023/12/26 06:22:40;;;;;;;6.75;0.00;;;8.40;99.90;;;;;;5057408;28;20063;-80
2023/12/26 06:25:06;;;;;;;8.02;0.25;;;8.30;99.90;;;;;;5040837;28;20115;-80
2023/12/26 06:27:31;;;;;;;1.40;0.22;;;8.30;99.90;;;;;;5058334;28;20016;-79
2023/12/26 06:29:57;;;;;;;5.30;1.33;;;8.30;99.90;;;;;;5058253;28;20036;-80
2023/12/26 06:32:22;;;;;;;3.40;0.47;;;8.20;99.90;;;;;;5058547;28;20021;-79
2023/12/26 06:34:48;;;;;;;4.07;0.43;;;8.30;99.90;;;;;;5059493;28;20040;-78
2023/12/26 06:37:14;;;;;;;5.05;0.03;;;8.30;99.90;;;;;;5059017;28;20029;-78
2023/12/26 06:39:39;;;;;;;2.45;0.50;;;8.30;99.90;;;;;;5058882;28;20089;-80
2023/12/26 06:42:05;;;;;;;2.75;0.25;;;8.30;99.90;;;;;;5059053;28;20052;-79
2023/12/26 06:44:31;;;;;;;7.03;0.70;;;8.30;99.90;;;;;;5058524;28;20033;-80
2023/12/26 06:46:56;;;;;;;8.60;0.05;;;8.20;99.90;;;;;;5055075;28;20039;-79
2023/12/26 06:49:22;;;;;;;9.27;0.68;;;8.30;99.90;;;;;;5055844;28;20021;-79
2023/12/26 06:51:48;;;;;;;7.20;0.20;;;8.30;99.90;;;;;;5039826;28;20020;-80
2023/12/26 06:54:13;;;;;;;8.50;1.13;;;8.30;99.90;;;;;;5055674;28;20025;-80
2023/12/26 06:56:39;;;;;;;7.38;0.57;;;8.30;99.90;;;;;;5053880;28;20028;-79
2023/12/26 06:59:04;;;;;;;4.55;0.00;;;8.30;99.90;;;;;;5038098;28;20021;-79
2023/12/26 07:01:30;;;;;;;15.73;1.13;;;8.20;99.90;;;;;;5054634;28;20096;-78
2023/12/26 07:03:55;;;;;;;9.27;0.10;;;8.20;99.90;;;;;;5037656;28;20013;-79
2023/12/26 07:06:21;;;;;;;5.47;0.10;;;8.20;99.90;;;;;;5056094;28;20029;-78
2023/12/26 07:08:50;;;;;;;10.02;1.55;;;8.10;99.90;;;;;;5055499;28;20025;-78
2023/12/26 07:11:15;;;;;;;4.03;0.25;;;8.10;99.90;;;;;;5036366;28;20116;-79
2023/12/26 07:13:41;;;;;;;6.85;0.32;;;8.10;99.90;;;;;;5036356;28;20099;-79
2023/12/26 07:16:06;;;;;;;5.50;0.00;;;8.10;99.90;;;;;;5054794;28;20048;-79
2023/12/26 07:18:32;;;;;;;6.38;0.47;;;8.10;99.90;;;;;;5036652;28;20017;-79
2023/12/26 07:20:57;;;;;;;3.67;0.10;;;8.10;99.90;;;;;;5053883;28;20033;-78
2023/12/26 07:23:23;;;;;;;6.38;0.13;;;8.00;99.90;;;;;;5055172;28;20384;-78
2023/12/26 07:25:49;;;;;;;12.95;1.10;;;8.00;99.90;;;;;;5037062;28;20010;-78
2023/12/26 07:28:17;;;;;;;3.13;0.00;;;8.00;99.90;;;;;;5037628;28;20024;-78
2023/12/26 07:30:43;;;;;;;8.38;0.88;;;8.00;99.90;;;;;;5055654;28;20104;-77
2023/12/26 07:33:08;;;;;;;4.15;0.10;;;8.00;99.90;;;;;;5055524;28;20025;-78
2023/12/26 07:35:36;;;;;;;7.90;0.80;;;7.90;99.90;;;;;;5053364;28;20029;-77
2023/12/26 07:38:01;;;;;;;2.80;0.00;;;7.90;99.90;;;;;;5054601;28;20025;-78
2023/12/26 07:40:27;;;;;;;4.22;0.28;;;7.90;99.90;;;;;;5055255;28;20078;-79
2023/12/26 07:42:53;;;;;;;2.03;0.20;;;7.90;99.90;;;;;;5038708;28;20426;-79
2023/12/26 07:45:23;;;;;;;8.63;0.47;;;8.00;99.90;;;;;;5038855;28;20028;-77
2023/12/26 07:47:51;;;;;;;5.90;0.50;;;9.10;99.90;;;;;;5055438;28;20068;-80
2023/12/26 07:50:17;;;;;;;4.95;0.08;;;7.90;99.90;;;;;;5054985;28;20021;-79
2023/12/26 07:52:42;;;;;;;8.05;0.45;;;7.90;99.90;;;;;;5056596;28;20492;-78
2023/12/26 07:55:08;;;;;;;7.65;0.10;;;8.00;99.90;;;;;;5054091;28;20116;-78
2023/12/26 07:57:33;;;;;;;7.32;0.00;;;8.00;99.90;;;;;;5057024;28;20052;-80
2023/12/26 07:59:59;;;;;;;2.28;0.20;;;8.00;99.90;;;;;;5050425;28;20032;-80
2023/12/26 08:02:25;;;;;;;3.58;0.20;;;8.00;99.90;;;;;;5055167;28;20107;-80
2023/12/26 08:04:50;;;;;;;13.18;0.40;;;8.10;99.90;;;;;;5072109;28;20025;-80
2023/12/26 08:07:16;;;;;;;6.60;0.20;;;8.10;99.90;;;;;;5072609;28;20024;-80
2023/12/26 08:09:42;;;;;;;3.78;0.20;;;8.10;99.90;;;;;;5072149;28;20072;-80
2023/12/26 08:12:07;;;;;;;3.92;0.52;;;8.20;99.90;;;;;;5056349;28;20029;-79
2023/12/26 08:14:33;;;;;;;4.68;0.30;;;8.30;99.90;;;;;;5070877;28;20096;-80
2023/12/26 08:16:59;;;;;;;10.95;1.25;;;8.30;99.90;;;;;;5076454;28;20013;-80
2023/12/26 08:19:24;;;;;;;5.85;0.45;;;8.20;99.90;;;;;;5073619;28;20029;-79
2023/12/26 08:21:50;;;;;;;5.05;0.05;;;8.40;99.90;;;;;;5072986;28;20017;-80
2023/12/26 08:24:15;;;;;;;14.95;0.28;;;8.20;99.90;;;;;;5058197;28;20056;-79
2023/12/26 08:26:42;;;;;;;23.70;1.35;;;;;;;;;;5075784;28;20029;-81
2023/12/26 08:29:07;;;;;;;8.90;1.02;;;8.30;99.90;;;;;;5059174;28;20017;-80
2023/12/26 08:31:33;;;;;;;6.95;0.77;;;8.30;99.90;;;;;;5059306;28;20085;-80
2023/12/26 08:33:59;;;;;;;4.45;0.05;;;;;;;;;;5058292;28;20044;-79
2023/12/26 08:36:25;;;;;;;6.75;0.15;;;8.40;99.90;;;;;;5076526;28;20033;-80
2023/12/26 08:38:50;;;;;;;9.55;0.00;;;8.40;99.90;;;;;;5076043;28;20001;-81
2023/12/26 08:41:16;;;;;;;9.13;1.08;;;8.40;99.90;;;;;;5057705;28;20021;-83
2023/12/26 08:43:42;;;;;;;2.47;0.15;;;8.40;99.90;;;;;;5074048;28;20096;-79
2023/12/26 08:46:07;;;;;;;4.45;0.52;;;8.40;99.90;;;;;;5073725;28;20032;-79
2023/12/26 08:48:33;;;;;;;5.82;0.00;;;8.50;99.90;;;;;;5057770;28;20011;-80
2023/12/26 08:50:59;;;;;;;9.80;0.82;;;8.50;99.90;;;;;;5072801;28;20022;-80
2023/12/26 08:53:24;;;;;;;7.55;0.00;;;8.50;99.90;;;;;;5055151;28;20036;-81
2023/12/26 08:55:50;;;;;;;10.00;0.00;;;8.50;99.90;;;;;;5050305;28;20025;-81
2023/12/26 08:58:15;;;;;;;4.13;0.15;;;8.40;99.90;;;;;;5068062;28;20024;-82
2023/12/26 09:00:41;;;;;;;12.77;0.90;;;8.40;99.90;;;;;;5040447;28;20056;-78
2023/12/26 09:03:10;;;;;;;6.40;0.73;;;9.50;99.90;;;;;;5039026;28;20021;-77
2023/12/26 09:05:35;;;;;;;6.05;0.32;;;8.40;99.90;;;;;;5057013;28;20472;-78
2023/12/26 09:08:01;;;;;;;3.88;0.00;;;8.40;99.90;;;;;;5057356;28;20021;-78
2023/12/26 09:10:26;;;;;;;2.58;0.25;;;8.30;99.90;;;;;;5039407;28;20027;-78
2023/12/26 09:12:52;;;;;;;5.63;0.20;;;8.30;99.90;;;;;;5056438;28;20539;-78
2023/12/26 09:15:18;;;;;;;17.55;0.73;;;8.30;99.90;;;;;;5056341;28;20547;-78
2023/12/26 09:17:43;;;;;;;4.68;0.08;;;8.40;99.90;;;;;;5051906;28;20372;-77
2023/12/26 09:20:12;;;;;;;9.15;0.85;;;8.50;99.90;;;;;;5057358;28;20025;-79
2023/12/26 09:22:37;;;;;;;2.05;0.10;;;8.50;99.90;;;;;;5056581;28;20036;-78
2023/12/26 09:25:05;;;;;;;8.30;0.52;;;8.60;99.90;;;;;;5057049;28;20025;-77
2023/12/26 09:27:31;;;;;;;14.55;1.20;;;8.60;99.90;;;;;;5057277;28;20029;-78
2023/12/26 09:29:57;;;;;;;16.92;1.25;;;8.60;99.90;;;;;;5039451;28;20021;-78
2023/12/26 09:32:23;;;;;;;8.05;0.43;;;8.70;99.90;;;;;;5056564;28;20439;-78
2023/12/26 09:34:49;;;;;;;10.90;0.32;;;8.70;99.90;;;;;;5039025;28;20021;-78
2023/12/26 09:37:14;;;;;;;7.75;0.57;;;8.80;99.90;;;;;;5057409;28;20032;-78
2023/12/26 09:39:40;;;;;;;12.80;0.20;;;8.90;99.90;;;;;;5056770;28;20064;-78
2023/12/26 09:42:09;;;;;;;6.47;0.45;;;9.00;99.90;;;;;;5038543;28;20476;-78
2023/12/26 09:44:34;;;;;;;;;;;9.00;99.90;;;;;;5038763;28;20120;-78
2023/12/26 09:47:02;;;;;;;6.10;0.45;;;9.00;99.90;;;;;;5056045;28;19936;-78
2023/12/26 09:49:28;;;;;;;2.72;0.15;;;9.00;99.90;;;;;;5034644;28;20112;-76
2023/12/26 09:51:58;;;;;;;5.70;0.57;;;9.10;99.90;;;;;;5035127;28;20064;-77
2023/12/26 09:54:26;;;;;;;6.63;0.98;;;9.20;99.90;;;;;;5035756;28;20025;-78
2023/12/26 09:56:51;;;;;;;7.00;0.20;;;9.20;99.90;;;;;;5036285;28;20394;-77
2023/12/26 09:59:19;;;;;;;6.72;0.20;;;9.40;99.90;;;;;;5036821;28;20035;-77
2023/12/26 10:01:45;;;;;;;4.68;0.40;;;9.40;99.90;;;;;;5034968;28;20013;-77
2023/12/26 10:04:11;;;;;;;5.05;0.40;;;;;;;;;;5035573;28;20018;-77
2023/12/26 10:06:37;;;;;;;9.55;0.10;;;9.50;99.90;;;;;;5034802;28;20366;-78
2023/12/26 10:09:04;;;;;;;10.73;0.47;;;9.60;99.90;;;;;;5035604;28;20018;-76
2023/12/26 10:11:32;;;;;;;5.47;0.43;;;9.60;99.90;;;;;;5034163;28;20026;-77
2023/12/26 10:13:58;;;;;;;9.95;0.05;;;9.60;99.90;;;;;;5034884;28;20373;-77
2023/12/26 10:16:24;;;;;;;5.07;0.35;;;9.60;99.90;;;;;;5038881;28;20079;-79
2023/12/26 10:18:50;;;;;;;13.23;0.43;;;;;;;;;;5044462;28;20018;-78
2023/12/26 10:21:17;;;;;;;4.90;0.10;;;9.60;99.90;;;;;;5057629;28;20017;-78
2023/12/26 10:23:47;;;;;;;6.55;0.20;;;9.70;99.90;;;;;;5066405;28;20021;-80
2023/12/26 10:26:13;;;;;;;4.95;0.13;;;;;;;;;;5071716;28;20037;-80
2023/12/26 10:28:40;;;;;;;7.30;0.30;;;;;;;;;;5070598;28;20029;-80
2023/12/26 10:31:13;;;;;;;5.40;0.47;;;9.80;99.90;;;;;;5070721;28;20032;-80
2023/12/26 10:33:40;;;;;;;8.98;0.73;;;9.90;99.90;;;;;;5062511;28;20035;-80
2023/12/26 10:36:07;;;;;;;8.45;0.45;;;9.90;99.90;;;;;;5063663;28;20017;-80
2023/12/26 10:38:33;;;;;;;4.50;0.17;;;10.00;99.90;;;;;;5065042;28;20379;-80
2023/12/26 10:41:04;;;;;;;7.05;0.10;;;10.00;99.90;;;;;;5054842;28;20504;-77
2023/12/26 10:43:32;;;;;;;9.93;0.70;;;10.10;99.90;;;;;;5037480;28;20065;-77
2023/12/26 10:45:59;;;;;;;4.78;0.30;;;10.10;99.90;;;;;;5057262;28;20032;-78
2023/12/26 10:48:31;;;;;;;6.03;0.65;;;10.10;99.90;;;;;;5064011;28;20071;-80
2023/12/26 10:50:59;;;;;;;7.53;0.30;;;10.50;99.90;;;;;;5062704;28;20024;-80
2023/12/26 10:53:31;;;;;;;7.93;0.13;;;10.60;99.90;;;;;;5042157;28;20112;-78
2023/12/26 10:55:58;;;;;;;8.23;0.38;;;10.60;99.90;;;;;;5066292;28;20029;-79
2023/12/26 10:58:29;;;;;;;6.70;0.10;;;10.50;99.90;;;;;;5064423;28;20025;-79
2023/12/26 11:00:55;;;;;;;9.10;0.57;;;11.00;99.90;;;;;;5064665;28;20028;-78
2023/12/26 11:03:21;;;;;;;4.53;0.30;;;10.30;99.90;;;;;;5046725;28;20029;-80
2023/12/26 11:05:46;;;;;;;4.88;0.52;;;10.20;99.90;;;;;;5065820;28;20024;-81
2023/12/26 11:08:12;;;;;;;5.95;0.32;;;10.10;99.90;;;;;;5047496;28;20025;-79
2023/12/26 11:10:38;;;;;;;4.57;0.32;;;10.10;99.90;;;;;;5063113;28;20033;-80
2023/12/26 11:13:04;;;;;;;9.18;0.08;;;10.10;99.90;;;;;;5050540;28;20021;-79
2023/12/26 11:15:30;;;;;;;5.38;0.40;;;9.90;99.90;;;;;;5065780;28;20021;-80
2023/12/26 11:17:57;;;;;;;12.40;1.08;;;9.90;99.90;;;;;;5059908;28;20036;-79
2023/12/26 11:20:22;;;;;;;9.77;0.50;;;9.90;99.90;;;;;;5047328;28;20029;-79
2023/12/26 11:22:48;;;;;;;7.40;0.68;;;9.80;99.90;;;;;;5048247;28;20059;-80
2023/12/26 11:25:13;;;;;;;3.10;0.10;;;9.80;99.90;;;;;;5050428;28;20025;-79
2023/12/26 11:27:39;;;;;;;12.35;0.85;;;9.80;99.90;;;;;;5064807;28;20021;-79
2023/12/26 11:30:04;;;;;;;7.75;0.45;;;9.70;99.90;;;;;;5061368;28;20036;-79
2023/12/26 11:32:31;;;;;;;6.95;0.00;;;9.80;99.90;;;;;;5048250;28;20029;-82
2023/12/26 11:34:56;;;;;;;5.40;0.80;;;9.80;99.90;;;;;;5068173;28;20029;-80
2023/12/26 11:37:22;;;;;;;6.25;0.25;;;9.80;99.90;;;;;;5064494;28;20101;-79
2023/12/26 11:39:48;;;;;;;4.65;0.10;;;9.90;99.90;;;;;;5047305;28;20025;-80
2023/12/26 11:42:14;;;;;;;9.65;0.20;;;11.20;99.90;;;;;;5050362;28;20117;-80
2023/12/26 11:44:40;;;;;;;5.25;0.32;;;9.90;99.90;;;;;;5068447;28;20033;-79
2023/12/26 11:47:05;;;;;;;10.57;1.30;;;10.10;99.90;;;;;;5055011;28;20028;-80
2023/12/26 11:49:31;;;;;;;5.75;0.17;;;9.90;99.90;;;;;;5072720;28;20056;-81
2023/12/26 11:51:56;;;;;;;15.25;1.35;;;9.90;99.90;;;;;;5054482;28;20066;-81
2023/12/26 11:54:22;;;;;;;7.20;1.10;;;9.90;99.90;;;;;;5071902;28;20059;-80
2023/12/26 11:56:48;;;;;;;3.97;0.00;;;;;;;;;;5067003;28;20028;-83
2023/12/26 11:59:14;;;;;;;5.40;0.10;;;9.90;99.90;;;;;;5045106;28;20029;-83
2023/12/26 12:01:39;;;;;;;3.60;0.10;;;9.90;99.90;;;;;;5044535;28;20469;-85
2023/12/26 12:04:05;;;;;;;4.10;0.10;;;;;;;;;;5043408;28;20032;-80
2023/12/26 12:06:31;;;;;;;7.20;0.10;;;9.90;99.90;;;;;;5043407;28;20116;-80
2023/12/26 12:09:04;;;;;;;7.63;1.02;;;9.90;99.90;;;;;;5061173;28;20041;-80
2023/12/26 12:11:30;;;;;;;2.88;0.00;;;;;;;;;;5061217;28;20021;-80
2023/12/26 12:13:55;;;;;;;7.22;0.52;;;9.90;99.90;;;;;;5043339;28;20021;-81
2023/12/26 12:16:25;;;;;;;5.47;0.70;;;9.80;99.90;;;;;;5043481;28;20491;-80
2023/12/26 12:19:00;;;;;;;7.28;1.65;;;9.80;99.90;;;;;;5043411;28;20516;-80
2023/12/26 12:21:37;;;;;;;10.40;1.08;;;9.90;99.90;;;;;;5059948;28;20435;-81
2023/12/26 12:24:06;;;;;;;2.88;0.52;;;9.80;99.90;;;;;;5042437;28;20071;-80
2023/12/26 12:27:06;;;;;;;11.93;0.80;;;9.80;99.90;;;;;;5042748;28;20358;-81
2023/12/26 12:30:00;;;;;;;9.32;0.20;;;9.80;99.90;;;;;;5043534;28;20024;-81
2023/12/26 12:32:33;;;;;;;7.07;0.65;;;9.70;99.90;;;;;;5060812;28;20021;-80
2023/12/26 12:35:19;;;;;;;4.03;0.00;;;9.70;99.90;;;;;;5061251;28;20557;-80
2023/12/26 12:37:48;;;;;;;6.38;0.13;;;9.60;99.90;;;;;;5043347;28;20033;-80
2023/12/26 12:40:13;;;;;;;3.38;0.00;;;9.70;99.90;;;;;;5042762;28;20017;-81
2023/12/26 12:42:39;;;;;;;7.72;0.20;;;9.70;99.90;;;;;;5042462;28;20052;-80
2023/12/26 12:45:10;;;;;;;1.88;0.30;;;9.60;99.90;;;;;;5042931;28;20025;-80
2023/12/26 12:47:37;;;;;;;3.55;0.10;;;9.60;99.90;;;;;;5058720;28;20017;-80
2023/12/26 12:50:03;;;;;;;2.80;0.20;;;9.70;99.90;;;;;;5042783;28;20024;-80
2023/12/26 12:52:29;;;;;;;3.75;0.30;;;9.60;99.90;;;;;;5058436;28;20068;-80